Time;durP1;ratioP1;P1;durP2;ratioP2;P2;SDS_P1;SDS_P2;PMS_P1;PMS_P2;Temp;Humidity;BMP_temperature;BMP_pressure;BME280_temperature;BME280_humidity;BME280_pressure;Samples;Min_cycle;Max_cycle;Signal;HPM_P1;HPM_P2
2021/09/30 00:01:38;;;;;;;4.05;0.50;;;10.70;99.90;;;;;;5006846;28;20502;-76
2021/09/30 00:04:04;;;;;;;0.57;0.40;;;10.70;99.90;;;;;;4991648;28;20026;-76
2021/09/30 00:06:30;;;;;;;1.23;0.38;;;10.80;99.90;;;;;;4990235;28;20030;-75
2021/09/30 00:08:56;;;;;;;1.58;0.40;;;10.80;99.90;;;;;;4990611;28;20034;-76
2021/09/30 00:11:26;;;;;;;2.13;0.50;;;10.80;99.90;;;;;;4991776;28;20026;-76
2021/09/30 00:13:57;;;;;;;1.40;0.30;;;10.70;99.90;;;;;;4990604;28;20443;-76
2021/09/30 00:16:36;;;;;;;2.72;1.05;;;10.70;99.90;;;;;;4991776;28;20022;-76
2021/09/30 00:32:50;;;;;;;2.17;0.50;;;10.60;99.90;;;;;;4995803;28;20032;-76
2021/09/30 00:40:52;;;;;;;4.45;1.17;;;10.50;99.90;;;;;;4994725;28;20092;-76
2021/09/30 00:46:27;;;;;;;1.20;0.30;;;10.40;99.90;;;;;;4995727;28;20045;-77
2021/09/30 00:54:16;;;;;;;1.00;0.40;;;10.20;99.90;;;;;;4995605;28;20042;-77
2021/09/30 01:57:38;;;;;;;2.17;0.40;;;9.80;99.90;;;;;;4993853;28;20053;-76
2021/09/30 01:59:02;;;;;;;1.48;0.30;;;9.80;99.90;;;;;;4993686;28;20069;-74
2021/09/30 02:23:51;;;;;;;1.13;0.70;;;9.50;99.90;;;;;;4993230;28;20396;-76
2021/09/30 02:26:34;;;;;;;1.42;0.43;;;9.50;99.90;;;;;;4993035;28;20037;-76
2021/09/30 02:59:06;;;;;;;3.35;0.77;;;9.30;99.90;;;;;;5012740;28;20495;-77
2021/09/30 03:01:33;;;;;;;1.02;0.65;;;9.30;99.90;;;;;;5011891;28;20420;-76
2021/09/30 03:04:00;;;;;;;2.00;0.90;;;9.20;99.90;;;;;;5010824;28;20030;-76
2021/09/30 03:06:26;;;;;;;2.53;0.77;;;9.20;99.90;;;;;;5010502;28;20117;-76
2021/09/30 03:08:57;;;;;;;7.57;1.58;;;9.30;99.90;;;;;;5011028;28;20030;-76
2021/09/30 03:11:25;;;;;;;5.38;0.90;;;9.40;99.90;;;;;;5010592;28;20468;-76
2021/09/30 03:13:53;;;;;;;1.95;0.95;;;9.40;99.90;;;;;;5011248;28;20111;-76
2021/09/30 03:19:18;;;;;;;4.15;1.38;;;9.40;99.90;;;;;;5012380;28;20348;-76
2021/09/30 03:24:51;;;;;;;2.92;0.77;;;9.30;99.90;;;;;;5009560;28;20030;-76
2021/09/30 03:27:18;;;;;;;4.03;1.13;;;9.40;99.90;;;;;;5009443;28;20051;-76
2021/09/30 03:29:44;;;;;;;2.83;1.35;;;9.40;99.90;;;;;;5009161;28;20191;-75
2021/09/30 03:32:11;;;;;;;10.55;1.35;;;9.40;99.90;;;;;;5009460;28;20553;-75
2021/09/30 03:34:37;;;;;;;4.03;0.70;;;9.40;99.90;;;;;;5008760;28;20026;-74
2021/09/30 03:37:03;;;;;;;5.43;1.65;;;9.30;99.90;;;;;;5009260;28;20044;-74
2021/09/30 03:39:29;;;;;;;2.75;0.85;;;9.30;99.90;;;;;;5008857;28;20035;-73
2021/09/30 03:41:55;;;;;;;7.72;1.80;;;9.30;99.90;;;;;;5009359;28;20038;-75
2021/09/30 03:44:22;;;;;;;4.95;1.20;;;9.30;99.90;;;;;;5008672;28;20119;-74
2021/09/30 03:46:51;;;;;;;3.22;1.05;;;9.30;99.90;;;;;;5009210;28;20161;-75
2021/09/30 03:49:26;;;;;;;7.20;1.05;;;9.20;99.90;;;;;;5009350;28;20041;-75
2021/09/30 03:52:02;;;;;;;2.95;1.30;;;9.20;99.90;;;;;;5009327;28;20030;-76
2021/09/30 03:54:37;;;;;;;2.88;1.58;;;9.10;99.90;;;;;;5008652;28;20085;-75
2021/09/30 03:57:10;;;;;;;4.95;1.35;;;9.10;99.90;;;;;;5010586;28;20025;-75
2021/09/30 03:59:36;;;;;;;3.45;1.35;;;9.20;99.90;;;;;;5010661;28;20462;-74
2021/09/30 04:02:02;;;;;;;2.70;0.88;;;9.20;99.90;;;;;;5011354;28;20050;-75
2021/09/30 04:04:35;;;;;;;6.05;1.20;;;9.10;99.90;;;;;;5009615;28;20030;-74
2021/09/30 04:07:08;;;;;;;3.63;1.30;;;9.10;99.90;;;;;;5010214;28;20387;-74
2021/09/30 04:09:36;;;;;;;4.85;1.15;;;9.20;99.90;;;;;;5009361;28;20029;-74
2021/09/30 04:12:12;;;;;;;5.35;1.20;;;9.20;99.90;;;;;;5011191;28;20088;-74
2021/09/30 04:14:39;;;;;;;7.32;1.23;;;9.10;99.90;;;;;;5010580;28;20511;-75
2021/09/30 04:17:05;;;;;;;3.42;1.30;;;9.10;99.90;;;;;;5011495;28;20212;-75
2021/09/30 04:19:31;;;;;;;3.97;1.10;;;9.10;99.90;;;;;;5009172;28;20036;-74
2021/09/30 04:21:57;;;;;;;3.17;1.45;;;9.20;99.90;;;;;;5009808;28;20026;-75
2021/09/30 04:24:23;;;;;;;4.07;1.25;;;9.20;99.90;;;;;;5011354;28;20126;-74
2021/09/30 04:26:50;;;;;;;2.50;1.20;;;9.20;99.90;;;;;;5010023;28;20053;-74
2021/09/30 04:29:17;;;;;;;4.00;2.03;;;9.20;99.90;;;;;;5009998;28;20041;-74
2021/09/30 04:31:43;;;;;;;8.60;1.75;;;9.20;99.90;;;;;;5009198;28;20117;-75
2021/09/30 04:34:09;;;;;;;2.80;1.13;;;9.20;99.90;;;;;;5009408;28;20076;-75
2021/09/30 04:36:35;;;;;;;2.25;0.95;;;9.20;99.90;;;;;;5009566;28;20038;-75
2021/09/30 04:39:01;;;;;;;3.28;1.70;;;9.20;99.90;;;;;;5009715;28;20025;-75
2021/09/30 04:41:27;;;;;;;6.78;1.35;;;9.20;99.90;;;;;;5009291;28;20026;-75
2021/09/30 04:43:52;;;;;;;4.72;1.52;;;9.20;99.90;;;;;;5009826;28;20482;-74
2021/09/30 04:46:20;;;;;;;3.00;1.67;;;9.30;99.90;;;;;;5009731;28;20033;-75
2021/09/30 04:48:47;;;;;;;2.95;1.52;;;9.20;99.90;;;;;;5009047;28;20026;-76
2021/09/30 04:51:13;;;;;;;8.48;1.73;;;9.30;99.90;;;;;;5011429;28;20034;-76
2021/09/30 04:53:39;;;;;;;4.82;1.23;;;9.30;99.90;;;;;;5010501;28;20022;-76
2021/09/30 04:56:05;;;;;;;5.20;1.63;;;9.30;99.90;;;;;;5009827;28;20032;-76
2021/09/30 04:58:31;;;;;;;3.88;1.52;;;9.20;99.90;;;;;;5009298;28;20031;-75
2021/09/30 05:00:57;;;;;;;3.22;1.00;;;9.20;99.90;;;;;;5009421;28;20346;-74
2021/09/30 05:03:23;;;;;;;6.75;1.30;;;9.20;99.90;;;;;;5009925;28;20033;-76
2021/09/30 05:05:48;;;;;;;3.50;1.27;;;9.20;99.90;;;;;;5008919;28;20062;-75
2021/09/30 05:08:14;;;;;;;5.55;1.45;;;9.20;99.90;;;;;;5010811;28;20497;-76
2021/09/30 05:10:42;;;;;;;5.28;1.80;;;9.30;99.90;;;;;;5010066;28;20104;-75
2021/09/30 05:13:16;;;;;;;5.78;1.77;;;9.30;99.90;;;;;;5012969;28;20092;-76
2021/09/30 05:15:42;;;;;;;4.35;1.48;;;9.30;99.90;;;;;;5012762;28;20037;-74
2021/09/30 05:18:10;;;;;;;6.20;1.60;;;9.30;99.90;;;;;;5013210;28;20029;-76
2021/09/30 05:20:36;;;;;;;4.43;2.20;;;9.30;99.90;;;;;;5012434;28;20033;-76
2021/09/30 05:23:02;;;;;;;4.00;1.63;;;9.30;99.90;;;;;;5015047;28;20022;-74
2021/09/30 05:25:28;;;;;;;4.45;1.40;;;9.30;99.90;;;;;;5012450;28;20088;-76
2021/09/30 05:27:54;;;;;;;8.80;1.67;;;9.20;99.90;;;;;;5014000;28;20453;-76
2021/09/30 05:30:21;;;;;;;3.88;1.77;;;9.20;99.90;;;;;;5012764;28;20117;-75
2021/09/30 05:32:49;;;;;;;6.03;2.05;;;9.30;99.90;;;;;;5012266;28;20058;-75
2021/09/30 05:35:16;;;;;;;7.38;1.65;;;9.30;99.90;;;;;;5013894;28;20026;-76
2021/09/30 05:37:43;;;;;;;5.15;1.95;;;9.30;99.90;;;;;;5012081;28;20104;-77
2021/09/30 05:40:14;;;;;;;8.25;1.70;;;9.30;99.90;;;;;;5013442;28;20026;-75
2021/09/30 05:42:43;;;;;;;3.60;1.88;;;9.30;99.90;;;;;;5012051;28;20486;-76
2021/09/30 05:45:12;;;;;;;6.00;1.77;;;9.20;99.90;;;;;;5012434;28;20391;-75
2021/09/30 05:47:38;;;;;;;5.55;1.98;;;9.30;99.90;;;;;;5011594;28;20030;-75
2021/09/30 05:50:05;;;;;;;6.63;2.05;;;9.30;99.90;;;;;;5013446;28;20438;-75
2021/09/30 05:52:32;;;;;;;7.50;1.70;;;9.30;99.90;;;;;;5011185;28;20029;-75
2021/09/30 05:54:58;;;;;;;5.72;1.50;;;9.30;99.90;;;;;;5011914;28;20033;-75
2021/09/30 05:57:23;;;;;;;3.88;1.85;;;9.30;99.90;;;;;;5012876;28;20494;-74
2021/09/30 05:59:50;;;;;;;3.60;1.77;;;9.30;99.90;;;;;;5012899;28;20494;-75
2021/09/30 06:10:39;;;;;;;6.88;1.60;;;9.40;99.90;;;;;;5012960;28;20040;-79
2021/09/30 06:13:17;;;;;;;3.20;1.50;;;9.40;99.90;;;;;;5011496;28;20141;-75
2021/09/30 06:15:44;;;;;;;5.00;1.73;;;9.40;99.90;;;;;;5012645;28;20067;-75
2021/09/30 06:18:10;;;;;;;5.15;1.60;;;9.50;99.90;;;;;;5011518;28;20551;-75
2021/09/30 06:20:37;;;;;;;4.38;1.95;;;9.40;99.90;;;;;;5010799;28;20116;-74
2021/09/30 06:23:03;;;;;;;2.80;1.70;;;9.50;99.90;;;;;;5010340;28;20056;-75
2021/09/30 06:25:30;;;;;;;5.93;2.20;;;9.50;99.90;;;;;;5012671;28;20033;-75
2021/09/30 06:27:56;;;;;;;6.80;1.55;;;9.60;99.90;;;;;;4994652;28;20364;-75
2021/09/30 06:30:29;;;;;;;6.20;1.95;;;9.60;99.90;;;;;;5011457;28;20034;-75
2021/09/30 06:32:56;;;;;;;8.13;2.22;;;9.70;99.90;;;;;;5010780;28;20045;-75
2021/09/30 06:35:22;;;;;;;2.15;1.63;;;9.90;99.90;;;;;;5013260;28;20104;-75
2021/09/30 06:37:48;;;;;;;3.70;2.13;;;9.90;99.90;;;;;;5012274;28;20032;-75
2021/09/30 06:40:13;;;;;;;4.00;1.50;;;10.10;99.90;;;;;;5010760;28;20022;-75
2021/09/30 06:42:39;;;;;;;6.47;2.33;;;10.30;99.90;;;;;;5011480;28;20097;-75
2021/09/30 06:45:06;;;;;;;6.03;1.58;;;10.50;99.90;;;;;;5012172;28;20121;-74
2021/09/30 06:47:36;;;;;;;7.43;1.27;;;10.60;99.90;;;;;;5010298;28;20439;-74
2021/09/30 06:50:05;;;;;;;4.40;1.98;;;10.70;99.90;;;;;;5011280;28;20034;-74
2021/09/30 06:52:31;;;;;;;5.30;1.52;;;10.80;99.90;;;;;;5012478;28;20040;-75
2021/09/30 06:54:56;;;;;;;5.13;1.63;;;10.90;99.90;;;;;;5010093;28;20116;-73
2021/09/30 06:57:27;;;;;;;5.03;1.83;;;11.00;99.90;;;;;;4994315;28;20033;-73
2021/09/30 06:59:53;;;;;;;6.00;2.78;;;11.00;99.90;;;;;;5010115;28;20272;-74
2021/09/30 07:02:22;;;;;;;9.70;2.63;;;11.10;99.90;;;;;;5010626;28;20050;-75
2021/09/30 07:04:48;;;;;;;5.00;1.38;;;11.00;99.90;;;;;;5009960;28;20049;-73
2021/09/30 07:07:14;;;;;;;3.85;1.80;;;11.20;99.90;;;;;;5010548;28;20387;-73
2021/09/30 07:09:40;;;;;;;17.80;4.25;;;11.10;99.90;;;;;;5011085;28;20033;-73
2021/09/30 07:12:06;;;;;;;8.15;2.13;;;11.10;99.90;;;;;;5011499;28;20044;-74
2021/09/30 07:14:32;;;;;;;6.93;1.98;;;11.40;99.90;;;;;;5010825;28;20034;-76
2021/09/30 07:16:57;;;;;;;3.35;1.75;;;11.50;99.90;;;;;;5009385;28;20033;-72
2021/09/30 07:19:23;;;;;;;6.90;2.13;;;11.70;99.90;;;;;;5011712;28;20037;-69
2021/09/30 07:21:49;;;;;;;4.95;1.90;;;12.90;99.90;;;;;;5009516;28;20363;-68
2021/09/30 07:24:15;;;;;;;4.78;1.90;;;13.20;99.90;;;;;;5011909;28;20033;-68
2021/09/30 07:26:41;;;;;;;6.38;2.13;;;13.50;99.90;;;;;;5010702;28;20026;-68
2021/09/30 07:29:07;;;;;;;5.50;2.00;;;13.60;99.90;;;;;;5010202;28;20048;-68
2021/09/30 07:31:33;;;;;;;5.78;1.88;;;13.70;99.90;;;;;;5011539;28;20494;-68
2021/09/30 07:33:58;;;;;;;6.00;1.55;;;13.70;99.90;;;;;;5010558;28;20037;-68
2021/09/30 07:36:24;;;;;;;7.35;1.80;;;14.00;99.90;;;;;;5009728;28;20025;-68
2021/09/30 07:38:50;;;;;;;5.00;2.03;;;14.00;99.90;;;;;;5009518;28;20455;-69
2021/09/30 07:41:16;;;;;;;4.50;1.02;;;14.40;99.90;;;;;;5009568;28;20036;-71
2021/09/30 07:43:42;;;;;;;5.10;1.38;;;14.20;99.90;;;;;;5009771;28;20531;-71
2021/09/30 07:46:08;;;;;;;5.93;1.55;;;15.30;99.90;;;;;;5011055;28;20030;-71
2021/09/30 07:48:34;;;;;;;7.32;1.60;;;14.90;99.90;;;;;;5009661;28;20030;-72
2021/09/30 07:51:00;;;;;;;5.97;2.03;;;15.50;99.90;;;;;;5009406;28;20033;-71
2021/09/30 07:53:26;;;;;;;4.85;1.45;;;15.10;99.90;;;;;;5010798;28;20026;-71
2021/09/30 07:55:52;;;;;;;3.55;1.35;;;15.00;99.90;;;;;;5010724;28;20470;-70
2021/09/30 07:58:18;;;;;;;4.10;1.80;;;15.10;99.90;;;;;;5011146;28;20204;-71
2021/09/30 08:00:44;;;;;;;8.32;2.20;;;15.10;99.90;;;;;;5008895;28;20104;-71
2021/09/30 08:03:10;;;;;;;7.97;1.70;;;14.90;99.90;;;;;;5009546;28;20533;-71
2021/09/30 08:05:36;;;;;;;4.47;1.88;;;14.40;99.90;;;;;;5009418;28;20053;-71
2021/09/30 08:08:10;;;;;;;5.28;1.42;;;14.30;99.90;;;;;;5009535;28;20034;-71
2021/09/30 08:10:38;;;;;;;5.80;1.67;;;14.50;99.90;;;;;;5009555;28;20099;-71
2021/09/30 08:13:05;;;;;;;4.60;1.70;;;14.50;99.90;;;;;;5011132;28;20093;-70
2021/09/30 08:15:31;;;;;;;2.95;1.02;;;14.50;99.90;;;;;;5009960;28;20022;-73
2021/09/30 08:17:57;;;;;;;5.07;1.33;;;14.70;99.90;;;;;;5008869;28;20258;-72
2021/09/30 08:20:24;;;;;;;5.55;1.15;;;14.80;99.90;;;;;;5008205;28;20038;-72
2021/09/30 08:22:50;;;;;;;5.10;1.50;;;15.20;99.90;;;;;;4991134;28;20048;-71
2021/09/30 08:25:15;;;;;;;6.25;1.83;;;15.30;99.90;;;;;;4992123;28;20034;-72
2021/09/30 08:27:41;;;;;;;6.18;1.15;;;15.60;99.90;;;;;;5007451;28;20030;-71
2021/09/30 08:30:08;;;;;;;5.25;1.30;;;15.80;99.90;;;;;;4991662;28;20057;-71
2021/09/30 08:32:35;;;;;;;5.32;1.42;;;15.70;99.90;;;;;;5008253;28;20045;-70
2021/09/30 08:35:01;;;;;;;4.90;1.25;;;15.50;99.90;;;;;;5007745;28;20034;-71
2021/09/30 08:37:26;;;;;;;3.75;1.77;;;15.80;99.90;;;;;;5008321;28;20068;-72
2021/09/30 08:39:54;;;;;;;4.78;1.60;;;16.30;99.90;;;;;;5006667;28;20042;-72
2021/09/30 08:42:20;;;;;;;9.68;1.42;;;16.30;99.30;;;;;;4991641;28;20026;-70
2021/09/30 08:44:46;;;;;;;3.95;1.67;;;16.70;99.70;;;;;;5007567;28;20367;-70
2021/09/30 08:47:11;;;;;;;6.70;1.40;;;16.60;98.20;;;;;;5010449;28;20037;-71
2021/09/30 08:49:37;;;;;;;7.57;1.35;;;16.00;99.60;;;;;;5011987;28;20348;-70
2021/09/30 08:52:03;;;;;;;6.20;1.25;;;15.90;99.70;;;;;;5011915;28;20472;-70
2021/09/30 08:54:28;;;;;;;5.32;1.02;;;16.00;99.70;;;;;;5013790;28;20462;-70
2021/09/30 08:56:54;;;;;;;5.85;1.70;;;16.00;99.40;;;;;;5011784;28;20098;-73
2021/09/30 08:59:29;;;;;;;6.13;1.63;;;15.30;99.90;;;;;;5012710;28;20022;-71
2021/09/30 09:02:09;;;;;;;8.32;1.70;;;15.70;99.90;;;;;;5012357;28;20119;-75
2021/09/30 09:04:36;;;;;;;4.80;1.67;;;16.10;99.40;;;;;;5012942;28;20032;-67
2021/09/30 09:07:09;;;;;;;11.60;1.88;;;16.10;99.10;;;;;;5012192;28;20033;-68
2021/09/30 09:09:36;;;;;;;8.20;2.20;;;16.00;99.40;;;;;;5012894;28;20387;-73
2021/09/30 09:12:09;;;;;;;3.78;1.30;;;16.60;98.80;;;;;;5011969;28;20422;-73
2021/09/30 09:14:40;;;;;;;7.15;1.50;;;16.20;98.40;;;;;;5012498;28;20481;-72
2021/09/30 09:17:09;;;;;;;6.95;2.38;;;15.90;99.10;;;;;;5012996;28;20033;-73
2021/09/30 09:19:39;;;;;;;3.95;1.45;;;16.50;98.90;;;;;;5014034;28;20048;-72
2021/09/30 09:22:17;;;;;;;8.50;1.60;;;16.80;98.40;;;;;;5013527;28;20080;-73
2021/09/30 09:25:01;;;;;;;5.57;1.55;;;16.70;98.20;;;;;;5011814;28;20126;-71
2021/09/30 09:27:47;;;;;;;5.45;2.63;;;16.50;98.30;;;;;;5013526;28;20030;-73
2021/09/30 09:30:50;;;;;;;8.60;1.90;;;16.50;98.50;;;;;;5014292;28;20113;-73
2021/09/30 09:33:26;;;;;;;9.60;1.80;;;16.80;97.70;;;;;;5012251;28;20041;-74
2021/09/30 09:36:01;;;;;;;3.88;1.30;;;17.00;97.90;;;;;;5011280;28;20034;-71
2021/09/30 09:38:48;;;;;;;6.05;1.45;;;16.40;99.20;;;;;;5013644;28;20030;-73
2021/09/30 09:41:22;;;;;;;5.70;0.98;;;17.20;97.60;;;;;;5013430;28;20032;-73
2021/09/30 09:43:49;;;;;;;4.63;1.15;;;17.40;96.90;;;;;;5011449;28;20029;-70
2021/09/30 09:46:21;;;;;;;5.82;1.23;;;17.40;96.90;;;;;;5011952;28;20053;-71
2021/09/30 09:49:04;;;;;;;3.30;0.93;;;17.50;96.50;;;;;;5010912;28;20116;-72
2021/09/30 09:51:43;;;;;;;2.45;0.75;;;17.50;96.90;;;;;;5028553;28;20034;-72
2021/09/30 09:54:22;;;;;;;9.40;2.63;;;17.50;96.50;;;;;;5013018;28;20029;-72
2021/09/30 09:56:50;;;;;;;3.65;1.20;;;18.00;96.20;;;;;;5011755;28;20030;-73
2021/09/30 09:59:31;;;;;;;5.82;1.25;;;18.30;95.60;;;;;;5013384;28;20042;-72
2021/09/30 10:01:58;;;;;;;5.55;1.20;;;18.20;95.80;;;;;;5010742;28;20136;-74
2021/09/30 10:04:25;;;;;;;3.85;1.17;;;18.10;95.60;;;;;;5011735;28;20419;-72
2021/09/30 10:06:51;;;;;;;6.40;1.50;;;17.90;95.80;;;;;;5010832;28;20022;-72
2021/09/30 10:09:17;;;;;;;4.60;1.10;;;18.10;96.30;;;;;;5012251;28;20099;-73
2021/09/30 10:11:43;;;;;;;6.80;1.40;;;18.00;95.70;;;;;;5011215;28;20022;-74
2021/09/30 10:14:13;;;;;;;5.47;2.17;;;18.50;95.50;;;;;;5027107;28;20140;-74
2021/09/30 10:16:50;;;;;;;5.60;1.05;;;18.40;94.60;;;;;;4978493;28;20049;-75
2021/09/30 10:19:15;;;;;;;4.88;1.17;;;18.90;94.90;;;;;;5012567;28;20030;-74
2021/09/30 10:21:41;;;;;;;6.45;1.40;;;18.70;94.10;;;;;;5011013;28;20167;-74
2021/09/30 10:24:14;;;;;;;6.68;1.67;;;18.70;93.80;;;;;;5010564;28;20101;-75
2021/09/30 10:26:53;;;;;;;6.72;1.50;;;18.90;93.30;;;;;;5011075;28;20451;-72
2021/09/30 10:29:45;;;;;;;2.10;0.73;;;18.40;92.90;;;;;;5012892;28;20053;-72
2021/09/30 10:32:16;;;;;;;2.95;1.38;;;18.60;95.60;;;;;;5004588;28;20041;-70
2021/09/30 10:34:45;;;;;;;3.42;1.25;;;18.40;93.80;;;;;;5012778;28;20026;-70
2021/09/30 10:37:31;;;;;;;11.43;1.92;;;18.60;93.60;;;;;;5010937;28;20056;-70
2021/09/30 10:40:23;;;;;;;7.22;1.20;;;18.60;93.50;;;;;;5012911;28;20459;-80
2021/09/30 10:42:56;;;;;;;5.53;1.17;;;18.80;93.60;;;;;;5012332;28;20463;-76
2021/09/30 10:45:36;;;;;;;4.45;1.65;;;19.20;94.40;;;;;;5011703;28;20037;-71
2021/09/30 10:48:30;;;;;;;3.33;1.17;;;19.80;94.00;;;;;;5010667;28;20054;-70
2021/09/30 10:51:09;;;;;;;5.97;1.23;;;19.50;93.10;;;;;;5011533;28;20053;-70
2021/09/30 10:53:47;;;;;;;5.28;1.63;;;19.60;92.30;;;;;;5006405;28;20057;-68
2021/09/30 10:56:27;;;;;;;4.15;1.77;;;19.60;92.90;;;;;;5010139;28;20030;-70
2021/09/30 10:59:15;;;;;;;10.55;1.80;;;20.20;92.90;;;;;;5009651;28;20467;-71
2021/09/30 11:01:47;;;;;;;2.08;1.02;;;19.80;92.90;;;;;;5008811;28;20418;-71
2021/09/30 11:04:14;;;;;;;3.83;1.33;;;19.70;91.90;;;;;;5011564;28;20037;-70
2021/09/30 11:06:41;;;;;;;3.35;1.17;;;19.30;92.50;;;;;;5010479;28;20382;-70
2021/09/30 11:09:22;;;;;;;2.80;0.77;;;19.20;92.80;;;;;;5008879;28;20428;-71
2021/09/30 11:12:06;;;;;;;4.22;1.00;;;19.50;92.80;;;;;;5011061;28;20057;-65
2021/09/30 11:14:32;;;;;;;3.47;1.45;;;19.60;91.50;;;;;;5010491;28;20032;-70
2021/09/30 11:16:58;;;;;;;5.13;1.88;;;20.20;91.50;;;;;;5009803;28;20022;-71
2021/09/30 11:19:30;;;;;;;3.03;0.82;;;20.50;90.20;;;;;;5010353;28;20080;-70
2021/09/30 11:22:02;;;;;;;5.22;0.90;;;20.60;90.20;;;;;;5009536;28;20455;-70
2021/09/30 11:24:32;;;;;;;7.75;1.52;;;20.00;91.00;;;;;;5009844;28;20030;-70
2021/09/30 11:26:58;;;;;;;3.95;0.98;;;19.70;91.50;;;;;;5010616;28;20037;-71
2021/09/30 11:29:29;;;;;;;6.82;1.35;;;19.70;91.50;;;;;;5009730;28;20034;-70
2021/09/30 11:31:57;;;;;;;2.30;0.93;;;20.30;91.00;;;;;;5025915;28;20072;-70
2021/09/30 11:34:27;;;;;;;10.57;2.05;;;20.00;90.00;;;;;;5011100;28;20105;-71
2021/09/30 11:36:55;;;;;;;2.33;0.73;;;19.90;89.70;;;;;;5009363;28;20025;-69
2021/09/30 11:39:21;;;;;;;6.50;1.48;;;20.00;91.20;;;;;;5011367;28;20029;-71
2021/09/30 11:41:48;;;;;;;9.57;0.90;;;20.40;90.80;;;;;;5010757;28;20088;-72
2021/09/30 11:44:16;;;;;;;3.50;0.73;;;20.30;90.50;;;;;;5010327;28;20118;-70
2021/09/30 11:46:42;;;;;;;4.05;1.10;;;20.60;91.00;;;;;;5009203;28;20431;-71
2021/09/30 11:49:13;;;;;;;7.20;2.20;;;20.10;90.20;;;;;;5008720;28;20029;-71
2021/09/30 11:51:53;;;;;;;5.05;0.60;;;20.70;90.60;;;;;;5010966;28;20022;-72
2021/09/30 11:54:20;;;;;;;4.13;0.95;;;21.20;88.10;;;;;;5009234;28;20061;-70
2021/09/30 11:56:51;;;;;;;4.07;0.63;;;20.60;88.00;;;;;;5009145;28;20026;-70
2021/09/30 11:59:19;;;;;;;5.50;1.10;;;20.40;87.80;;;;;;5010237;28;20443;-71
2021/09/30 12:01:47;;;;;;;5.53;0.57;;;20.20;87.20;;;;;;5010852;28;20137;-71
2021/09/30 12:04:27;;;;;;;5.53;0.98;;;19.90;89.80;;;;;;5008453;28;20499;-70
2021/09/30 12:06:52;;;;;;;4.15;0.60;;;19.40;87.90;;;;;;5008763;28;20030;-71
2021/09/30 12:09:20;;;;;;;3.58;1.70;;;20.00;88.90;;;;;;5009028;28;20100;-70
2021/09/30 12:11:54;;;;;;;3.45;1.52;;;20.30;86.80;;;;;;5009445;28;20030;-71
2021/09/30 12:14:21;;;;;;;3.67;1.05;;;20.40;85.40;;;;;;5010599;28;20029;-71
2021/09/30 12:16:54;;;;;;;8.43;1.23;;;19.80;86.40;;;;;;5009512;28;20105;-71
2021/09/30 12:19:32;;;;;;;2.75;0.90;;;19.20;86.40;;;;;;5009630;28;20383;-70
2021/09/30 12:21:58;;;;;;;3.88;0.85;;;18.30;88.60;;;;;;5010542;28;20037;-71
2021/09/30 12:24:29;;;;;;;4.95;0.80;;;18.30;90.00;;;;;;5013174;28;20116;-71
2021/09/30 12:26:56;;;;;;;4.97;0.88;;;18.20;90.10;;;;;;5012492;28;20099;-70
2021/09/30 12:29:23;;;;;;;3.13;0.85;;;17.90;90.90;;;;;;5012623;28;20050;-71
2021/09/30 12:32:06;;;;;;;5.10;1.00;;;18.10;92.90;;;;;;5013069;28;20041;-71
2021/09/30 12:34:33;;;;;;;2.58;0.80;;;18.40;90.60;;;;;;5014227;28;20026;-71
2021/09/30 12:36:58;;;;;;;3.47;0.90;;;18.20;90.20;;;;;;5012468;28;20058;-71
2021/09/30 12:39:30;;;;;;;4.55;0.93;;;18.60;90.20;;;;;;5014678;28;20066;-72
2021/09/30 12:42:19;;;;;;;3.63;0.82;;;19.50;90.60;;;;;;5012562;28;20033;-71
2021/09/30 12:44:49;;;;;;;1.48;0.60;;;19.80;88.70;;;;;;5014867;28;20059;-72
2021/09/30 12:47:42;;;;;;;6.82;1.15;;;18.50;88.70;;;;;;5011933;28;20033;-71
2021/09/30 12:50:12;;;;;;;4.90;0.60;;;18.40;89.10;;;;;;5012753;28;20091;-72
2021/09/30 12:52:39;;;;;;;3.38;0.98;;;17.60;90.60;;;;;;5014444;28;20037;-69
2021/09/30 12:55:20;;;;;;;5.72;0.60;;;17.40;90.70;;;;;;5013368;28;20111;-70
2021/09/30 12:57:47;;;;;;;8.82;0.88;;;17.00;91.40;;;;;;5014167;28;20112;-70
2021/09/30 13:00:17;;;;;;;2.33;0.80;;;16.90;91.20;;;;;;5011499;28;20132;-70
2021/09/30 13:02:44;;;;;;;4.75;1.08;;;17.20;91.40;;;;;;5011346;28;20033;-71
2021/09/30 13:05:10;;;;;;;1.38;0.50;;;16.90;91.40;;;;;;5009484;28;20026;-72
2021/09/30 13:07:51;;;;;;;5.63;1.05;;;17.00;92.00;;;;;;4996915;28;20510;-71
2021/09/30 13:10:19;;;;;;;5.97;1.17;;;17.70;91.10;;;;;;5008865;28;20118;-71
2021/09/30 13:13:15;;;;;;;5.03;0.45;;;18.20;90.60;;;;;;4994144;28;20030;-72
2021/09/30 13:15:48;;;;;;;3.35;0.50;;;18.60;90.20;;;;;;5009334;28;20038;-73
2021/09/30 13:18:16;;;;;;;2.25;0.68;;;19.50;89.60;;;;;;4993631;28;20141;-73
2021/09/30 13:21:02;;;;;;;3.78;0.40;;;20.00;85.30;;;;;;4993302;28;20113;-72
2021/09/30 13:23:29;;;;;;;4.10;0.52;;;19.70;83.20;;;;;;4992514;28;20030;-71
2021/09/30 13:25:55;;;;;;;1.65;0.70;;;19.90;81.80;;;;;;4992556;28;20042;-72
2021/09/30 13:28:21;;;;;;;2.63;0.68;;;19.30;82.70;;;;;;4993726;28;20085;-72
2021/09/30 13:30:47;;;;;;;1.50;0.45;;;19.30;83.20;;;;;;4992662;28;20030;-71
2021/09/30 13:33:14;;;;;;;5.03;0.50;;;18.80;79.80;;;;;;4991584;28;20376;-72
2021/09/30 13:35:40;;;;;;;4.65;0.80;;;18.80;80.10;;;;;;4993801;28;20030;-72
2021/09/30 13:38:06;;;;;;;11.20;1.25;;;18.60;80.90;;;;;;4991391;28;20506;-72
2021/09/30 13:40:32;;;;;;;3.70;0.75;;;18.30;83.30;;;;;;5009037;28;20082;-71
2021/09/30 13:42:57;;;;;;;5.80;0.60;;;18.40;82.70;;;;;;5009082;28;20026;-72
2021/09/30 13:45:23;;;;;;;1.88;0.50;;;17.90;82.30;;;;;;5013761;28;20518;-71
2021/09/30 13:47:50;;;;;;;1.17;0.38;;;18.20;81.00;;;;;;5011217;28;20529;-80
2021/09/30 13:50:20;;;;;;;1.45;0.50;;;18.50;88.50;;;;;;5012195;28;20030;-79
2021/09/30 13:52:47;;;;;;;0.90;0.40;;;18.50;86.70;;;;;;5011499;28;20128;-79
2021/09/30 13:55:14;;;;;;;4.13;0.60;;;18.70;87.20;;;;;;5010377;28;20073;-79
2021/09/30 13:57:41;;;;;;;2.22;0.70;;;18.70;79.20;;;;;;5010897;28;20129;-79
2021/09/30 14:00:10;;;;;;;3.10;0.63;;;18.90;84.40;;;;;;5011863;28;20057;-79
2021/09/30 14:02:35;;;;;;;3.08;0.43;;;19.00;85.40;;;;;;5011188;28;20172;-77
2021/09/30 14:05:04;;;;;;;1.20;0.38;;;19.10;81.30;;;;;;5011750;28;20144;-78
2021/09/30 14:07:30;;;;;;;0.80;0.30;;;19.10;82.90;;;;;;5012709;28;20125;-78
2021/09/30 14:09:56;;;;;;;6.68;0.68;;;19.10;83.40;;;;;;5011335;28;20034;-79
2021/09/30 14:12:21;;;;;;;1.58;0.32;;;19.20;81.70;;;;;;5011214;28;20448;-78
2021/09/30 14:14:47;;;;;;;1.23;0.30;;;19.00;83.20;;;;;;5012478;28;20098;-77
2021/09/30 14:17:13;;;;;;;3.00;0.30;;;18.70;79.80;;;;;;5010685;28;20030;-77
2021/09/30 14:19:39;;;;;;;5.20;0.50;;;18.70;82.70;;;;;;5010330;28;20096;-79
2021/09/30 14:22:04;;;;;;;2.78;0.40;;;18.40;80.30;;;;;;5010019;28;20421;-79
2021/09/30 14:24:31;;;;;;;8.32;1.02;;;18.50;85.60;;;;;;5011145;28;20109;-76
2021/09/30 14:26:58;;;;;;;2.15;0.50;;;18.60;83.60;;;;;;5010247;28;20040;-78
2021/09/30 14:29:24;;;;;;;2.70;0.60;;;18.60;84.30;;;;;;5009852;28;20076;-78
2021/09/30 14:31:49;;;;;;;3.08;0.40;;;18.70;85.40;;;;;;5012715;28;20062;-78
2021/09/30 14:34:15;;;;;;;2.05;0.45;;;18.80;85.30;;;;;;5006979;28;20129;-72
2021/09/30 14:36:41;;;;;;;1.50;0.60;;;18.70;82.50;;;;;;4991207;28;20026;-73
2021/09/30 14:39:07;;;;;;;2.78;0.50;;;18.20;80.00;;;;;;4992210;28;20034;-72
2021/09/30 14:41:33;;;;;;;1.92;0.32;;;18.00;80.70;;;;;;4996850;28;20486;-72
2021/09/30 14:43:59;;;;;;;3.67;0.60;;;17.90;82.30;;;;;;5010941;28;20034;-72
2021/09/30 14:46:25;;;;;;;2.75;0.70;;;17.90;81.70;;;;;;5009542;28;20428;-71
2021/09/30 14:48:50;;;;;;;1.38;0.38;;;17.40;82.10;;;;;;5008917;28;20120;-73
2021/09/30 14:51:17;;;;;;;4.25;0.50;;;17.40;82.30;;;;;;5010712;28;20026;-71
2021/09/30 14:53:42;;;;;;;3.05;0.70;;;17.30;82.60;;;;;;5006537;28;20030;-71
2021/09/30 14:56:09;;;;;;;1.33;0.40;;;17.30;83.70;;;;;;5006462;28;20141;-70
2021/09/30 14:58:35;;;;;;;5.88;0.95;;;17.00;82.50;;;;;;4994619;28;20161;-71
2021/09/30 15:01:02;;;;;;;6.53;0.88;;;16.70;84.10;;;;;;5008773;28;20088;-71
2021/09/30 15:03:27;;;;;;;40.88;9.57;;;16.80;84.20;;;;;;4992002;28;20033;-70
2021/09/30 15:05:53;;;;;;;89.15;15.98;;;17.10;87.50;;;;;;4994528;28;20025;-78
2021/09/30 15:08:19;;;;;;;53.13;10.48;;;17.10;88.70;;;;;;5007611;28;20480;-81
2021/09/30 15:10:45;;;;;;;78.78;17.95;;;17.50;91.20;;;;;;4991854;28;20084;-79
2021/09/30 15:13:11;;;;;;;25.60;6.75;;;17.70;91.80;;;;;;5007559;28;20034;-78
2021/09/30 15:15:37;;;;;;;2.75;1.08;;;17.90;90.40;;;;;;5009708;28;20351;-76
2021/09/30 15:18:08;;;;;;;7.82;1.33;;;17.60;88.40;;;;;;5009153;28;20044;-78
2021/09/30 15:23:08;;;;;;;3.35;0.98;;;17.50;90.30;;;;;;5007527;28;20057;-75
2021/09/30 15:25:37;;;;;;;6.68;1.25;;;17.50;88.80;;;;;;5011153;28;20040;-76
2021/09/30 15:28:05;;;;;;;5.80;0.93;;;17.50;86.80;;;;;;5005324;28;20038;-76
2021/09/30 15:30:31;;;;;;;3.88;1.08;;;17.30;88.60;;;;;;4998351;28;20049;-77
2021/09/30 15:32:57;;;;;;;4.93;1.13;;;17.20;89.40;;;;;;5009053;28;20026;-71
2021/09/30 15:35:23;;;;;;;7.47;1.45;;;17.10;90.30;;;;;;5010601;28;20021;-77